Time;durP1;ratioP1;P1;durP2;ratioP2;P2;SDS_P1;SDS_P2;PMS_P1;PMS_P2;Temp;Humidity;BMP_temperature;BMP_pressure;BME280_temperature;BME280_humidity;BME280_pressure;Samples;Min_cycle;Max_cycle;Signal;HPM_P1;HPM_P2
2023/06/13 00:01:14;;;;;;;5.83;4.00;;;16.20;72.50;;;;;;4995358;28;20279;-87
2023/06/13 00:03:40;;;;;;;4.13;3.30;;;;;;;;;;4976765;28;20495;-87
2023/06/13 00:06:07;;;;;;;4.77;3.60;;;;;;;;;;4988713;28;20206;-88
2023/06/13 00:08:33;;;;;;;3.53;2.73;;;16.00;73.40;;;;;;4992176;28;20566;-87
2023/06/13 00:10:59;;;;;;;5.27;2.97;;;16.00;76.10;;;;;;4984810;28;20474;-86
2023/06/13 00:13:25;;;;;;;7.07;3.47;;;15.50;82.90;;;;;;4987145;28;21695;-87
2023/06/13 00:15:53;;;;;;;5.97;3.47;;;15.60;85.00;;;;;;4972093;28;20197;-86
2023/06/13 00:18:19;;;;;;;5.87;3.97;;;15.40;87.00;;;;;;4981734;28;20566;-87
2023/06/13 00:20:46;;;;;;;6.87;2.90;;;15.30;87.80;;;;;;4986380;28;22936;-88
2023/06/13 00:23:12;;;;;;;4.63;3.60;;;15.20;89.30;;;;;;4983372;28;21306;-87
2023/06/13 00:25:38;;;;;;;5.37;3.40;;;16.60;90.60;;;;;;4989265;28;20971;-87
2023/06/13 00:28:04;;;;;;;8.83;3.57;;;15.10;90.30;;;;;;4968616;28;20430;-87
2023/06/13 00:30:30;;;;;;;6.43;2.60;;;15.10;90.70;;;;;;4967335;28;20218;-87
2023/06/13 00:32:56;;;;;;;3.37;2.57;;;14.70;91.40;;;;;;4987050;28;20455;-87
2023/06/13 00:35:22;;;;;;;4.80;3.23;;;14.90;93.80;;;;;;4981288;28;20441;-87
2023/06/13 00:37:50;;;;;;;7.00;3.70;;;14.80;94.30;;;;;;4967930;28;20195;-87
2023/06/13 00:40:17;;;;;;;5.30;3.37;;;14.80;94.70;;;;;;4982330;28;20562;-86
2023/06/13 00:42:43;;;;;;;5.33;3.67;;;14.80;96.50;;;;;;4961468;28;20584;-87
2023/06/13 00:45:26;;;;;;;5.90;2.90;;;14.60;97.10;;;;;;4982588;28;20581;-87
2023/06/13 00:47:55;;;;;;;4.65;3.10;;;14.50;97.00;;;;;;4969767;28;20187;-86
2023/06/13 00:50:26;;;;;;;3.65;2.65;;;14.50;97.80;;;;;;4991555;28;20241;-87
2023/06/13 00:52:55;;;;;;;6.90;3.60;;;14.40;98.60;;;;;;4993973;28;20191;-86
2023/06/13 00:55:23;;;;;;;6.67;3.37;;;14.50;99.90;;;;;;4983750;28;20210;-87
2023/06/13 00:57:53;;;;;;;4.67;2.93;;;14.30;99.90;;;;;;4981192;28;20601;-86
2023/06/13 01:00:20;;;;;;;3.80;3.20;;;14.30;99.90;;;;;;4985311;28;20458;-85
2023/06/13 01:02:45;;;;;;;3.80;2.50;;;14.30;99.90;;;;;;4986767;28;22151;-86
2023/06/13 01:05:11;;;;;;;4.00;3.30;;;14.20;99.90;;;;;;4985861;28;20199;-85
2023/06/13 01:07:38;;;;;;;6.55;4.15;;;14.00;99.90;;;;;;4986206;28;20183;-86
2023/06/13 01:10:05;;;;;;;4.50;3.17;;;15.20;99.90;;;;;;4985317;28;20207;-85
2023/06/13 01:12:53;;;;;;;6.50;3.10;;;14.00;99.90;;;;;;4968765;28;20190;-86
2023/06/13 01:15:21;;;;;;;5.93;4.03;;;14.10;99.90;;;;;;4984412;28;20430;-87
2023/06/13 01:17:57;;;;;;;5.15;3.47;;;14.10;99.90;;;;;;4983853;28;20205;-86
2023/06/13 01:20:27;;;;;;;5.63;3.25;;;14.10;99.90;;;;;;4987451;28;20198;-87
2023/06/13 01:23:06;;;;;;;6.75;3.17;;;14.10;99.90;;;;;;4991047;28;20295;-86
2023/06/13 01:26:02;;;;;;;7.60;3.95;;;14.10;99.90;;;;;;4988885;28;20301;-86
2023/06/13 01:28:32;;;;;;;7.20;2.70;;;14.10;99.90;;;;;;4985692;28;21202;-87
2023/06/13 01:30:59;;;;;;;3.30;2.25;;;14.10;99.90;;;;;;4971645;28;20202;-88
2023/06/13 01:33:25;;;;;;;4.77;3.00;;;14.20;99.90;;;;;;4991550;28;20225;-86
2023/06/13 01:35:51;;;;;;;3.63;3.20;;;;;;;;;;4982668;28;20474;-86
2023/06/13 01:38:17;;;;;;;4.05;2.85;;;14.10;99.90;;;;;;4965329;28;20438;-87
2023/06/13 01:40:43;;;;;;;4.57;2.50;;;;;;;;;;4987867;28;20233;-86
2023/06/13 01:43:09;;;;;;;4.80;2.97;;;;;;;;;;4972859;28;20465;-88
2023/06/13 01:45:35;;;;;;;7.33;2.73;;;;;;;;;;4985030;28;20502;-86
2023/06/13 01:48:16;;;;;;;5.30;2.80;;;14.50;99.90;;;;;;4987393;28;20468;-87
2023/06/13 01:50:53;;;;;;;3.77;3.40;;;14.70;99.90;;;;;;4988594;28;20258;-87
2023/06/13 01:53:28;;;;;;;5.30;2.80;;;14.80;99.90;;;;;;4973217;28;20572;-87
2023/06/13 01:56:01;;;;;;;5.90;3.10;;;14.80;99.90;;;;;;4972946;28;20466;-86
2023/06/13 01:58:41;;;;;;;4.90;3.33;;;14.90;99.70;;;;;;4959746;28;20466;-86
2023/06/13 02:01:07;;;;;;;3.33;3.00;;;14.90;99.90;;;;;;4966818;28;20465;-86
2023/06/13 02:03:33;;;;;;;4.37;2.93;;;14.90;99.90;;;;;;4984177;28;20215;-87
2023/06/13 02:05:59;;;;;;;4.30;2.92;;;17.10;99.90;;;;;;4983627;28;20442;-86
2023/06/13 02:08:26;;;;;;;5.50;3.40;;;15.10;98.70;;;;;;4967447;28;20190;-87
2023/06/13 02:10:52;;;;;;;6.60;3.80;;;15.10;99.30;;;;;;4970407;28;20234;-87
2023/06/13 02:13:18;;;;;;;4.73;3.07;;;15.10;98.70;;;;;;4986793;28;20442;-87
2023/06/13 02:15:44;;;;;;;3.90;3.47;;;;;;;;;;4986407;28;20503;-86
2023/06/13 02:18:10;;;;;;;4.80;3.10;;;;;;;;;;4985876;28;20275;-87
2023/06/13 02:20:37;;;;;;;6.90;2.83;;;;;;;;;;4981175;28;20561;-86
2023/06/13 02:23:03;;;;;;;4.80;3.13;;;14.80;98.50;;;;;;4958287;28;20556;-86
2023/06/13 02:25:29;;;;;;;7.80;4.13;;;;;;;;;;4978273;28;20434;-87
2023/06/13 02:27:55;;;;;;;4.63;2.70;;;;;;;;;;4975008;28;20437;-86
2023/06/13 02:30:21;;;;;;;6.53;2.70;;;15.00;98.20;;;;;;4972330;28;20509;-88
2023/06/13 02:32:50;;;;;;;6.13;4.00;;;15.00;98.30;;;;;;4968856;28;20442;-87
2023/06/13 02:35:16;;;;;;;6.63;3.53;;;15.10;98.30;;;;;;4956463;28;20206;-87
2023/06/13 02:37:41;;;;;;;3.93;3.13;;;15.00;98.20;;;;;;4956049;28;20455;-87
2023/06/13 02:40:08;;;;;;;3.27;2.33;;;14.90;98.50;;;;;;4966975;28;20288;-86
2023/06/13 02:42:34;;;;;;;5.80;2.83;;;14.80;98.90;;;;;;4973295;28;20247;-87
2023/06/13 02:45:00;;;;;;;4.83;3.20;;;;;;;;;;4974125;28;20250;-87
2023/06/13 02:47:26;;;;;;;4.97;2.90;;;14.60;99.70;;;;;;4980248;28;20434;-87
2023/06/13 02:49:52;;;;;;;4.60;2.90;;;;;;;;;;4978810;28;20570;-87
2023/06/13 02:52:21;;;;;;;4.20;2.83;;;14.30;99.90;;;;;;4965372;28;20442;-88
2023/06/13 02:54:47;;;;;;;5.25;3.35;;;14.20;99.90;;;;;;4985724;28;20438;-89
2023/06/13 02:57:13;;;;;;;5.83;2.47;;;14.20;99.90;;;;;;4968878;28;20732;-87
2023/06/13 02:59:39;;;;;;;3.77;2.80;;;;;;;;;;4988283;28;20473;-86
2023/06/13 03:02:04;;;;;;;4.43;2.33;;;14.20;99.90;;;;;;4981337;28;20270;-87
2023/06/13 03:04:31;;;;;;;4.73;3.13;;;14.30;99.90;;;;;;4979287;28;20460;-86
2023/06/13 03:06:57;;;;;;;5.47;2.95;;;;;;;;;;4955134;28;20431;-86
2023/06/13 03:09:22;;;;;;;10.60;2.73;;;14.40;99.90;;;;;;4974966;28;20358;-86
2023/06/13 03:11:49;;;;;;;4.60;2.97;;;14.40;99.90;;;;;;4975782;28;20454;-86
2023/06/13 03:14:17;;;;;;;3.70;3.40;;;14.50;99.90;;;;;;4979524;28;20179;-87
2023/06/13 03:16:42;;;;;;;6.60;3.92;;;14.50;99.90;;;;;;4981908;28;20194;-87
2023/06/13 03:19:08;;;;;;;3.33;2.67;;;;;;;;;;4962156;28;20191;-87
2023/06/13 03:21:34;;;;;;;6.00;3.60;;;14.70;99.90;;;;;;4982592;28;20195;-86
2023/06/13 03:24:00;;;;;;;3.50;2.67;;;14.70;99.90;;;;;;4981615;28;20282;-86
2023/06/13 03:26:28;;;;;;;5.17;3.27;;;14.80;99.80;;;;;;4978647;28;20188;-87
2023/06/13 03:28:54;;;;;;;4.47;2.77;;;;;;;;;;4964767;28;20265;-87
2023/06/13 03:31:19;;;;;;;4.13;2.80;;;14.60;99.90;;;;;;4981136;28;20592;-86
2023/06/13 03:33:45;;;;;;;4.07;3.17;;;14.40;99.90;;;;;;4966898;28;20442;-86
2023/06/13 03:36:11;;;;;;;4.80;3.20;;;;;;;;;;4979053;28;20366;-87
2023/06/13 03:38:36;;;;;;;4.17;3.03;;;14.10;99.90;;;;;;4980954;28;20681;-88
2023/06/13 03:41:02;;;;;;;6.33;3.47;;;13.50;99.90;;;;;;4986331;28;20492;-86
2023/06/13 03:43:27;;;;;;;5.73;2.53;;;13.90;99.90;;;;;;4985028;28;20233;-87
2023/06/13 03:45:53;;;;;;;3.03;2.57;;;;;;;;;;4978133;28;20179;-87
2023/06/13 03:48:19;;;;;;;3.37;3.00;;;14.00;99.90;;;;;;4978731;28;20191;-87
2023/06/13 03:50:45;;;;;;;3.10;2.20;;;14.10;99.90;;;;;;4963644;28;20980;-88
2023/06/13 03:53:10;;;;;;;4.10;3.07;;;14.30;99.90;;;;;;4984201;28;20183;-87
2023/06/13 03:55:36;;;;;;;5.80;3.70;;;14.30;99.90;;;;;;4962652;28;20696;-87
2023/06/13 03:58:02;;;;;;;4.63;2.95;;;;;;;;;;4982570;28;20189;-87
2023/06/13 04:00:32;;;;;;;3.90;3.30;;;14.50;99.90;;;;;;4957598;28;20329;-86
2023/06/13 04:03:00;;;;;;;4.10;2.40;;;14.60;99.90;;;;;;4980438;28;20494;-86
2023/06/13 04:05:26;;;;;;;5.47;2.43;;;14.70;99.90;;;;;;4981610;28;20442;-88
2023/06/13 04:07:53;;;;;;;4.43;4.03;;;15.00;99.90;;;;;;4980464;28;20452;-87
2023/06/13 04:10:19;;;;;;;4.33;2.90;;;15.00;99.90;;;;;;4982078;28;20464;-88
2023/06/13 04:12:45;;;;;;;9.13;3.60;;;15.20;99.90;;;;;;4980279;28;20443;-87
2023/06/13 04:15:10;;;;;;;4.23;3.07;;;15.90;99.90;;;;;;4966456;28;20180;-86
2023/06/13 04:17:36;;;;;;;4.20;2.60;;;15.90;99.90;;;;;;4980085;28;20454;-86
2023/06/13 04:20:04;;;;;;;6.27;3.20;;;18.00;99.90;;;;;;4984082;28;20225;-85
2023/06/13 04:22:31;;;;;;;5.50;3.00;;;;;;;;;;4978864;28;20235;-86
2023/06/13 04:24:57;;;;;;;3.50;3.07;;;;;;;;;;4976565;28;20494;-84
2023/06/13 04:27:27;;;;;;;3.77;2.67;;;;;;;;;;4982301;28;20530;-87
2023/06/13 04:29:53;;;;;;;6.60;3.17;;;23.60;68.40;;;;;;4987838;28;20481;-86
2023/06/13 04:32:19;;;;;;;3.57;2.97;;;24.30;62.60;;;;;;4983537;28;20505;-86
2023/06/13 04:34:52;;;;;;;5.20;3.10;;;;;;;;;;4978795;28;20522;-86
2023/06/13 04:37:23;;;;;;;6.13;3.00;;;25.10;57.50;;;;;;4979943;28;20193;-87
2023/06/13 04:39:50;;;;;;;3.43;3.13;;;24.60;54.70;;;;;;4979058;28;20559;-87
2023/06/13 04:42:21;;;;;;;6.53;2.80;;;25.00;55.70;;;;;;4976870;28;20488;-85
2023/06/13 04:44:48;;;;;;;2.93;2.43;;;;;;;;;;4974127;28;20446;-86
2023/06/13 04:47:14;;;;;;;5.43;3.17;;;;;;;;;;4981230;28;20433;-87
2023/06/13 04:49:41;;;;;;;2.40;2.20;;;;;;;;;;4963090;28;20459;-87
2023/06/13 04:52:08;;;;;;;3.00;2.53;;;23.90;54.80;;;;;;4973600;28;20569;-86
2023/06/13 04:54:33;;;;;;;4.93;2.63;;;23.30;55.30;;;;;;4971074;28;20434;-86
2023/06/13 04:56:59;;;;;;;4.37;3.00;;;23.60;55.80;;;;;;4966091;28;20473;-87
2023/06/13 04:59:25;;;;;;;5.87;3.03;;;24.50;54.50;;;;;;4974689;28;20183;-88
2023/06/13 05:01:51;;;;;;;3.67;3.13;;;25.70;55.40;;;;;;4972521;28;20176;-88
2023/06/13 05:04:17;;;;;;;3.43;2.80;;;;;;;;;;4969442;28;20501;-86
2023/06/13 05:06:42;;;;;;;15.23;3.43;;;25.20;52.60;;;;;;4974185;28;20194;-87
2023/06/13 05:09:08;;;;;;;3.43;3.13;;;;;;;;;;4981897;28;20457;-88
2023/06/13 05:11:35;;;;;;;3.47;2.80;;;;;;;;;;4977899;28;20210;-89
2023/06/13 05:14:00;;;;;;;2.80;2.53;;;26.80;49.00;;;;;;4977480;28;20434;-87
2023/06/13 05:16:29;;;;;;;4.97;3.40;;;;;;;;;;4970834;28;20991;-87
2023/06/13 05:18:57;;;;;;;7.67;3.47;;;27.50;47.60;;;;;;4995070;28;20262;-90
2023/06/13 05:21:22;;;;;;;4.57;3.03;;;28.00;48.30;;;;;;4994162;28;21065;-89
2023/06/13 05:23:48;;;;;;;4.10;2.33;;;28.30;47.20;;;;;;4960236;28;20465;-87
2023/06/13 05:26:14;;;;;;;12.60;3.90;;;;;;;;;;4979760;28;20183;-86
2023/06/13 05:28:40;;;;;;;4.37;3.20;;;28.00;45.10;;;;;;4959337;28;20183;-87
2023/06/13 05:31:06;;;;;;;3.60;2.90;;;;;;;;;;4961068;28;20465;-86
2023/06/13 05:33:33;;;;;;;4.30;2.50;;;27.10;45.60;;;;;;4976866;28;20820;-88
2023/06/13 05:35:58;;;;;;;4.93;3.30;;;26.40;45.40;;;;;;4959429;28;20470;-87
2023/06/13 05:38:25;;;;;;;6.50;2.43;;;;;;;;;;4980211;28;20535;-87
2023/06/13 05:40:50;;;;;;;2.93;2.50;;;25.30;46.50;;;;;;4959205;28;20264;-87
2023/06/13 05:43:19;;;;;;;7.87;3.60;;;;;;;;;;4972613;28;20993;-87
2023/06/13 05:45:47;;;;;;;3.13;2.83;;;25.40;46.30;;;;;;4951568;28;20183;-87
2023/06/13 05:48:13;;;;;;;3.40;2.40;;;25.10;46.70;;;;;;4968185;28;20442;-87
2023/06/13 05:50:39;;;;;;;4.10;2.90;;;;;;;;;;4954514;28;22458;-85
2023/06/13 05:53:05;;;;;;;9.07;3.27;;;;;;;;;;4955803;28;20199;-87
2023/06/13 05:55:31;;;;;;;3.50;2.83;;;;;;;;;;4968067;28;20450;-88
2023/06/13 05:57:57;;;;;;;4.00;2.73;;;;;;;;;;4951163;28;20516;-87
2023/06/13 06:00:23;;;;;;;2.47;2.20;;;;;;;;;;4954493;28;20520;-89
2023/06/13 06:02:50;;;;;;;3.93;2.40;;;;;;;;;;4954356;28;20462;-87
2023/06/13 06:05:19;;;;;;;8.03;3.90;;;;;;;;;;4969355;28;20441;-88
2023/06/13 06:07:45;;;;;;;2.80;2.40;;;;;;;;;;4968013;28;20549;-88
2023/06/13 06:10:12;;;;;;;3.77;2.57;;;27.80;41.30;;;;;;4949085;28;20462;-89
2023/06/13 06:12:38;;;;;;;4.70;3.13;;;27.70;41.80;;;;;;4949054;28;20446;-88
2023/06/13 06:15:05;;;;;;;3.07;2.77;;;28.00;41.10;;;;;;4973223;28;21115;-89
2023/06/13 06:17:32;;;;;;;3.27;2.90;;;27.60;40.80;;;;;;4948586;28;20520;-88
2023/06/13 06:19:58;;;;;;;2.73;2.53;;;27.70;42.40;;;;;;4951336;28;20484;-86
2023/06/13 06:22:23;;;;;;;4.47;3.40;;;29.50;42.10;;;;;;4951035;28;20475;-88
2023/06/13 06:24:49;;;;;;;4.23;2.70;;;27.10;41.40;;;;;;4970828;28;20179;-89
2023/06/13 06:27:15;;;;;;;3.10;2.87;;;26.30;42.40;;;;;;4978050;28;20186;-89
2023/06/13 06:29:44;;;;;;;6.00;2.60;;;;;;;;;;4960135;28;20211;-88
2023/06/13 06:32:11;;;;;;;3.63;3.00;;;26.40;41.70;;;;;;4962406;28;20175;-90
2023/06/13 06:34:37;;;;;;;4.33;3.17;;;26.70;43.20;;;;;;4952270;28;20437;-89
2023/06/13 06:37:03;;;;;;;5.20;4.60;;;;;;;;;;4960620;28;20540;-89
2023/06/13 06:39:30;;;;;;;4.33;3.00;;;27.30;42.00;;;;;;4974546;28;20438;-90
2023/06/13 06:41:56;;;;;;;3.70;3.20;;;;;;;;;;4978580;28;20458;-87
2023/06/13 06:44:25;;;;;;;3.90;3.47;;;28.70;41.10;;;;;;4975628;28;20485;-88
2023/06/13 06:46:51;;;;;;;2.90;2.60;;;27.40;39.90;;;;;;4979763;28;20503;-85
2023/06/13 06:49:17;;;;;;;3.77;3.43;;;28.90;39.00;;;;;;4995796;28;20456;-88
2023/06/13 06:51:43;;;;;;;3.37;3.10;;;29.10;39.60;;;;;;4957738;28;20400;-88
2023/06/13 06:54:08;;;;;;;5.40;3.80;;;28.10;40.90;;;;;;4976382;28;21081;-89
2023/06/13 06:56:34;;;;;;;3.30;2.73;;;27.00;42.40;;;;;;4958943;28;20202;-88
2023/06/13 06:59:01;;;;;;;3.87;3.47;;;26.70;41.70;;;;;;4960274;28;20192;-88
2023/06/13 07:01:26;;;;;;;3.57;2.80;;;26.80;42.50;;;;;;4975879;28;20207;-87
2023/06/13 07:03:53;;;;;;;7.23;3.40;;;28.70;42.20;;;;;;4973925;28;20466;-88
2023/06/13 07:06:19;;;;;;;5.10;3.20;;;;;;;;;;4975174;28;20171;-88
2023/06/13 07:08:45;;;;;;;4.27;3.53;;;26.80;40.60;;;;;;4975317;28;21088;-87
2023/06/13 07:11:12;;;;;;;4.10;3.30;;;27.90;42.60;;;;;;4983015;28;20492;-89
2023/06/13 07:13:38;;;;;;;3.97;3.33;;;27.00;41.20;;;;;;4976492;28;20178;-87
2023/06/13 07:16:04;;;;;;;3.33;2.73;;;26.40;40.70;;;;;;4961539;28;20514;-88
2023/06/13 07:18:30;;;;;;;4.17;3.20;;;26.30;41.10;;;;;;4978755;28;20233;-88
2023/06/13 07:20:56;;;;;;;5.13;2.90;;;;;;;;;;4982140;28;20455;-88
2023/06/13 07:23:22;;;;;;;5.20;3.00;;;26.40;41.40;;;;;;4976384;28;20639;-87
2023/06/13 07:25:48;;;;;;;4.33;3.70;;;;;;;;;;4978060;28;20438;-89
2023/06/13 07:28:14;;;;;;;4.00;3.40;;;;;;;;;;4976944;28;20443;-87
2023/06/13 07:30:40;;;;;;;4.63;3.40;;;;;;;;;;4959208;28;20871;-88
2023/06/13 07:33:06;;;;;;;3.53;3.23;;;;;;;;;;4977234;28;20439;-88
2023/06/13 07:35:32;;;;;;;4.73;4.10;;;;;;;;;;4976199;28;20499;-88
2023/06/13 07:37:58;;;;;;;5.37;3.57;;;;;;;;;;4974166;28;20731;-88
2023/06/13 07:40:24;;;;;;;5.63;3.37;;;28.50;38.00;;;;;;4975984;28;20481;-88
2023/06/13 07:42:50;;;;;;;3.80;3.40;;;27.90;38.50;;;;;;4953514;28;20470;-88
2023/06/13 07:45:16;;;;;;;3.53;3.23;;;28.10;39.00;;;;;;4967472;28;21174;-88
2023/06/13 07:47:42;;;;;;;4.67;3.83;;;28.10;39.30;;;;;;4969724;28;20436;-87
2023/06/13 07:50:08;;;;;;;4.13;3.40;;;27.70;38.00;;;;;;4967292;28;20463;-88
2023/06/13 07:52:34;;;;;;;9.70;3.93;;;;;;;;;;4968931;28;20458;-88
2023/06/13 07:55:00;;;;;;;5.53;3.50;;;27.30;38.10;;;;;;4932794;28;20253;-89
2023/06/13 07:57:26;;;;;;;7.27;3.27;;;;;;;;;;4969300;28;20442;-87
2023/06/13 07:59:54;;;;;;;5.50;3.50;;;27.20;38.80;;;;;;4963051;28;20214;-88
2023/06/13 08:02:20;;;;;;;4.20;3.50;;;;;;;;;;4964828;28;20456;-88
2023/06/13 08:04:46;;;;;;;4.13;3.60;;;;;;;;;;4966390;28;20441;-88
2023/06/13 08:07:11;;;;;;;3.70;3.27;;;29.00;38.20;;;;;;4968300;28;20457;-89
2023/06/13 08:09:37;;;;;;;5.17;4.30;;;29.40;38.40;;;;;;4949861;28;20462;-89
2023/06/13 08:12:03;;;;;;;4.83;3.83;;;32.20;38.00;;;;;;4963837;28;20179;-88
2023/06/13 08:14:29;;;;;;;3.97;3.60;;;;;;;;;;4969061;28;20191;-88
2023/06/13 08:16:55;;;;;;;4.37;3.97;;;;;;;;;;4967660;28;20242;-88
2023/06/13 08:19:21;;;;;;;4.83;4.43;;;;;;;;;;4972493;28;20450;-87
2023/06/13 08:21:46;;;;;;;5.23;3.77;;;30.90;34.70;;;;;;4952568;28;20448;-90
2023/06/13 08:24:12;;;;;;;4.53;3.87;;;;;;;;;;4951823;28;20466;-88
2023/06/13 08:26:39;;;;;;;4.07;3.70;;;;;;;;;;4953684;28;20764;-89
2023/06/13 08:29:05;;;;;;;3.43;3.23;;;29.60;35.20;;;;;;4970327;28;21581;-89
2023/06/13 08:31:35;;;;;;;5.67;4.07;;;;;;;;;;4953880;28;20599;-90
2023/06/13 08:34:00;;;;;;;5.33;4.63;;;29.80;35.20;;;;;;4953779;28;20439;-89
2023/06/13 08:36:28;;;;;;;4.30;4.00;;;;;;;;;;4970591;28;20455;-90
2023/06/13 08:38:57;;;;;;;4.07;3.67;;;30.70;34.70;;;;;;4968688;28;20452;-88
2023/06/13 08:41:24;;;;;;;5.20;4.80;;;30.60;34.70;;;;;;4970973;28;20854;-87
2023/06/13 08:43:51;;;;;;;5.37;4.50;;;31.10;35.80;;;;;;4968374;28;20472;-88
2023/06/13 08:46:17;;;;;;;4.50;4.07;;;;;;;;;;4971363;28;20442;-87
2023/06/13 08:48:42;;;;;;;4.30;3.90;;;29.60;35.10;;;;;;4970806;28;20444;-86
2023/06/13 08:51:13;;;;;;;4.80;4.40;;;29.60;35.10;;;;;;4968152;28;20454;-86
2023/06/13 08:53:47;;;;;;;4.00;3.60;;;28.80;35.00;;;;;;4972346;28;20274;-87
2023/06/13 08:56:13;;;;;;;10.03;3.83;;;;;;;;;;4943370;28;20445;-87
2023/06/13 08:58:39;;;;;;;5.97;5.00;;;;;;;;;;4952753;28;20446;-87
2023/06/13 09:01:06;;;;;;;4.43;4.03;;;28.20;36.70;;;;;;4967263;28;20992;-86
2023/06/13 09:03:32;;;;;;;4.90;3.97;;;;;;;;;;4973454;28;20465;-88
2023/06/13 09:06:00;;;;;;;4.90;4.50;;;28.70;35.80;;;;;;4970227;28;20559;-86
2023/06/13 09:08:27;;;;;;;4.07;3.77;;;28.70;37.30;;;;;;4955005;28;22327;-88
2023/06/13 09:10:54;;;;;;;5.87;4.40;;;29.90;36.40;;;;;;4974818;28;20469;-88
2023/06/13 09:13:23;;;;;;;4.77;4.23;;;30.90;33.20;;;;;;4975965;28;20517;-89
2023/06/13 09:15:49;;;;;;;5.20;4.70;;;;;;;;;;4978867;28;20822;-88
2023/06/13 09:18:16;;;;;;;5.83;4.03;;;31.10;33.40;;;;;;4977825;28;20446;-87
2023/06/13 09:20:42;;;;;;;7.40;4.07;;;;;;;;;;4958167;28;20501;-88
2023/06/13 09:23:08;;;;;;;6.53;4.90;;;;;;;;;;4991801;28;20488;-87
2023/06/13 09:25:36;;;;;;;4.50;4.10;;;30.30;32.40;;;;;;4995223;28;21604;-86
2023/06/13 09:28:36;;;;;;;4.90;4.50;;;29.90;32.70;;;;;;4970800;28;20549;-88
2023/06/13 09:31:02;;;;;;;4.80;4.40;;;30.60;33.30;;;;;;4964195;28;20496;-88
2023/06/13 09:33:28;;;;;;;5.10;4.70;;;;;;;;;;4984768;28;20474;-89
2023/06/13 09:35:54;;;;;;;4.40;4.10;;;;;;;;;;4984207;28;20285;-88
2023/06/13 09:38:23;;;;;;;5.23;4.57;;;30.80;32.40;;;;;;4982253;28;20533;-87
2023/06/13 09:40:50;;;;;;;4.87;4.30;;;32.20;33.70;;;;;;4984023;28;20947;-89
2023/06/13 09:43:16;;;;;;;4.40;4.10;;;30.00;31.00;;;;;;4984889;28;20931;-88
2023/06/13 09:45:47;;;;;;;4.77;4.37;;;30.00;31.60;;;;;;4981947;28;20459;-88
2023/06/13 09:48:12;;;;;;;5.27;4.87;;;29.80;31.80;;;;;;4981594;28;20452;-88
2023/06/13 09:50:40;;;;;;;4.90;4.50;;;28.90;33.00;;;;;;4965585;28;20887;-86
2023/06/13 09:53:07;;;;;;;4.70;4.27;;;;;;;;;;4985492;28;20564;-88
2023/06/13 09:55:33;;;;;;;5.90;4.87;;;;;;;;;;4984455;28;20436;-88
2023/06/13 09:58:01;;;;;;;4.30;3.90;;;;;;;;;;4958168;28;20527;-88
2023/06/13 10:00:27;;;;;;;5.77;4.57;;;29.60;33.60;;;;;;4982641;28;20461;-88
2023/06/13 10:02:53;;;;;;;4.57;3.90;;;30.20;34.10;;;;;;4960145;28;20466;-89
2023/06/13 10:05:18;;;;;;;4.40;4.00;;;29.10;33.40;;;;;;4976954;28;21911;-89
2023/06/13 10:07:44;;;;;;;5.00;4.57;;;29.10;33.20;;;;;;4981269;28;20192;-88
2023/06/13 10:10:10;;;;;;;5.30;4.60;;;29.60;34.00;;;;;;4981367;28;20212;-89
2023/06/13 10:12:46;;;;;;;5.03;4.60;;;30.00;33.70;;;;;;4964809;28;20193;-87
2023/06/13 10:15:19;;;;;;;4.37;4.07;;;30.00;31.60;;;;;;5000737;28;20208;-87
2023/06/13 10:17:45;;;;;;;4.80;3.93;;;30.70;32.80;;;;;;5002195;28;20447;-87
2023/06/13 10:20:15;;;;;;;11.03;4.83;;;30.40;30.10;;;;;;4967462;28;20629;-88
2023/06/13 10:22:41;;;;;;;4.83;4.40;;;;;;;;;;4990610;28;21156;-88
2023/06/13 10:25:08;;;;;;;6.00;5.00;;;29.70;31.90;;;;;;4971383;28;20437;-89
2023/06/13 10:27:41;;;;;;;8.53;4.23;;;28.20;32.30;;;;;;4985110;28;20455;-87
2023/06/13 10:30:15;;;;;;;5.17;4.70;;;28.60;33.60;;;;;;4986358;28;20460;-87
2023/06/13 10:32:50;;;;;;;5.00;4.50;;;29.30;33.60;;;;;;4984267;28;20537;-87
2023/06/13 10:35:34;;;;;;;5.60;5.10;;;28.80;32.70;;;;;;4986532;28;20450;-90
2023/06/13 10:38:08;;;;;;;4.63;4.23;;;28.00;34.00;;;;;;4986787;28;21034;-88
2023/06/13 10:41:04;;;;;;;5.53;3.80;;;26.50;36.00;;;;;;4982550;28;20481;-87
2023/06/13 10:43:38;;;;;;;4.47;4.07;;;25.00;36.60;;;;;;4962764;28;20990;-88
2023/06/13 10:46:07;;;;;;;4.03;3.70;;;24.70;37.60;;;;;;4966713;28;20434;-86
2023/06/13 10:48:49;;;;;;;3.80;3.50;;;24.70;38.30;;;;;;4995930;28;20533;-87
2023/06/13 10:51:22;;;;;;;4.60;3.83;;;24.40;38.20;;;;;;4989207;28;20473;-88
2023/06/13 10:54:02;;;;;;;3.97;3.67;;;24.50;39.70;;;;;;4964989;28;20500;-87
2023/06/13 10:56:30;;;;;;;6.00;4.73;;;24.40;38.00;;;;;;4983737;28;20496;-87
2023/06/13 10:59:04;;;;;;;4.37;4.03;;;24.40;38.50;;;;;;4964147;28;21235;-87
2023/06/13 11:01:32;;;;;;;4.10;3.70;;;24.50;37.50;;;;;;4982746;28;20470;-88
2023/06/13 11:04:21;;;;;;;8.43;4.10;;;24.70;38.40;;;;;;4982583;28;21191;-89
2023/06/13 11:06:50;;;;;;;6.40;4.50;;;24.90;40.00;;;;;;4979347;28;20442;-88
2023/06/13 11:09:18;;;;;;;6.77;4.30;;;25.20;38.00;;;;;;4979345;28;20437;-89
2023/06/13 11:12:02;;;;;;;6.57;4.40;;;25.10;38.40;;;;;;4962535;28;21120;-89
2023/06/13 11:14:36;;;;;;;6.50;3.87;;;25.10;37.80;;;;;;4966562;28;21100;-88
2023/06/13 11:17:02;;;;;;;4.70;4.10;;;24.70;37.20;;;;;;4982583;28;20495;-88
2023/06/13 11:19:28;;;;;;;3.73;3.43;;;24.90;37.70;;;;;;4977574;28;20954;-86
2023/06/13 11:22:00;;;;;;;10.03;4.40;;;24.90;38.20;;;;;;4980398;28;20441;-89
2023/06/13 11:24:33;;;;;;;4.73;4.23;;;24.90;38.30;;;;;;4981975;28;20527;-87
2023/06/13 11:27:00;;;;;;;4.23;3.83;;;24.90;37.80;;;;;;4961621;28;20438;-88
2023/06/13 11:29:27;;;;;;;4.33;3.93;;;;;;;;;;4964010;28;20430;-89
2023/06/13 11:31:54;;;;;;;4.00;3.63;;;25.00;36.90;;;;;;4962627;28;20537;-88
2023/06/13 11:34:24;;;;;;;7.70;3.67;;;24.90;36.80;;;;;;4977100;28;20548;-90
2023/06/13 11:36:57;;;;;;;5.43;3.70;;;24.90;37.20;;;;;;4976912;28;20469;-89
2023/06/13 11:39:30;;;;;;;5.67;4.77;;;25.00;36.60;;;;;;4973626;28;20426;-89
2023/06/13 11:41:57;;;;;;;5.17;4.07;;;25.00;37.20;;;;;;4975401;28;20458;-89
2023/06/13 11:44:22;;;;;;;9.37;4.07;;;25.10;36.40;;;;;;4962928;28;20473;-89
2023/06/13 11:46:49;;;;;;;4.47;4.07;;;;;;;;;;4966314;28;20445;-87
2023/06/13 11:49:15;;;;;;;4.73;4.10;;;25.00;35.90;;;;;;4965520;28;20824;-89
2023/06/13 11:51:41;;;;;;;5.27;4.60;;;25.00;36.40;;;;;;4981743;28;20496;-89
2023/06/13 11:54:08;;;;;;;6.83;4.30;;;;;;;;;;4986070;28;20434;-88
2023/06/13 11:56:40;;;;;;;8.77;4.03;;;;;;;;;;4966507;28;20438;-90
2023/06/13 11:59:17;;;;;;;4.80;3.73;;;25.30;37.70;;;;;;4992239;28;20426;-88
2023/06/13 12:01:52;;;;;;;4.20;3.90;;;25.60;37.20;;;;;;4982877;28;20438;-88
2023/06/13 12:04:18;;;;;;;4.97;4.47;;;;;;;;;;4990081;28;20466;-90
2023/06/13 12:06:44;;;;;;;6.97;4.07;;;25.80;36.00;;;;;;4985802;28;20438;-88
2023/06/13 12:09:10;;;;;;;4.20;3.83;;;;;;;;;;4986595;28;20493;-89
2023/06/13 12:11:36;;;;;;;8.20;3.93;;;25.40;35.80;;;;;;4983580;28;20204;-90
2023/06/13 12:14:02;;;;;;;4.43;4.00;;;25.30;36.70;;;;;;4983722;28;20569;-89
2023/06/13 12:16:34;;;;;;;5.30;4.17;;;25.40;37.70;;;;;;4965499;28;20441;-88
2023/06/13 12:19:00;;;;;;;4.50;3.97;;;25.50;38.50;;;;;;4964243;28;20452;-89
2023/06/13 12:21:31;;;;;;;5.30;4.43;;;25.90;36.20;;;;;;4963620;28;20605;-89
2023/06/13 12:24:07;;;;;;;4.60;4.20;;;25.90;36.80;;;;;;4978329;28;20493;-88
2023/06/13 12:26:34;;;;;;;4.50;4.10;;;25.90;35.60;;;;;;4981980;28;20454;-88
2023/06/13 12:29:06;;;;;;;4.23;3.90;;;25.90;36.20;;;;;;4984467;28;20472;-88
2023/06/13 12:31:38;;;;;;;9.70;4.43;;;25.70;35.80;;;;;;4981925;28;21130;-88
2023/06/13 12:34:18;;;;;;;5.10;4.70;;;25.70;36.00;;;;;;4960867;28;20438;-89
2023/06/13 12:36:45;;;;;;;4.07;3.77;;;25.70;36.40;;;;;;4982319;28;20437;-88
2023/06/13 12:39:14;;;;;;;5.07;4.60;;;25.60;37.10;;;;;;4981231;28;21053;-88
2023/06/13 12:41:44;;;;;;;4.10;3.70;;;25.80;37.00;;;;;;4983405;28;20465;-89
2023/06/13 12:44:10;;;;;;;5.03;4.43;;;;;;;;;;4978605;28;20463;-88
2023/06/13 12:46:40;;;;;;;4.60;3.90;;;26.00;37.70;;;;;;4976901;28;20550;-88
2023/06/13 12:49:14;;;;;;;5.97;5.00;;;25.90;38.20;;;;;;4981860;28;20443;-90
2023/06/13 12:51:44;;;;;;;5.30;4.40;;;26.20;38.40;;;;;;4970913;28;20451;-89
2023/06/13 12:54:23;;;;;;;4.30;3.90;;;26.30;37.40;;;;;;4978962;28;20969;-87
2023/06/13 12:56:50;;;;;;;4.63;3.87;;;26.30;37.50;;;;;;4978937;28;20436;-89
2023/06/13 12:59:15;;;;;;;4.53;3.83;;;26.30;36.70;;;;;;4961786;28;20495;-88
2023/06/13 13:01:41;;;;;;;5.37;4.23;;;26.30;37.20;;;;;;4981317;28;21285;-88
2023/06/13 13:04:06;;;;;;;4.83;4.43;;;26.40;36.70;;;;;;4959686;28;20216;-88
2023/06/13 13:06:32;;;;;;;6.63;4.77;;;;;;;;;;4957644;28;20225;-88
2023/06/13 13:08:58;;;;;;;4.83;4.10;;;;;;;;;;4980588;28;20199;-88
2023/06/13 13:11:26;;;;;;;5.67;4.60;;;;;;;;;;4979661;28;20452;-88
2023/06/13 13:13:51;;;;;;;4.87;4.07;;;;;;;;;;4981194;28;20443;-87
2023/06/13 13:16:17;;;;;;;4.93;4.00;;;26.60;36.80;;;;;;4972982;28;20448;-88
2023/06/13 13:18:43;;;;;;;11.13;3.90;;;26.80;38.00;;;;;;4975218;28;20455;-88